sensor_id;sensor_type;location;lat;lon;timestamp;P1;durP1;ratioP1;P2;durP2;ratioP2
70153;SDS011;57519;51.494;-2.626;2022-08-24T00:01:04;6.72;;;3.58;;
70153;SDS011;57519;51.494;-2.626;2022-08-24T00:03:32;7.97;;;3.40;;
70153;SDS011;57519;51.494;-2.626;2022-08-24T00:05:58;7.45;;;3.78;;
70153;SDS011;57519;51.494;-2.626;2022-08-24T00:08:24;7.13;;;3.70;;
70153;SDS011;57519;51.494;-2.626;2022-08-24T00:10:50;6.10;;;3.20;;
70153;SDS011;57519;51.494;-2.626;2022-08-24T00:13:15;7.50;;;3.67;;
70153;SDS011;57519;51.494;-2.626;2022-08-24T00:15:43;5.88;;;3.25;;
70153;SDS011;57519;51.494;-2.626;2022-08-24T00:18:09;8.52;;;3.83;;
70153;SDS011;57519;51.494;-2.626;2022-08-24T00:20:35;8.40;;;3.75;;
70153;SDS011;57519;51.494;-2.626;2022-08-24T00:23:01;4.83;;;3.00;;
70153;SDS011;57519;51.494;-2.626;2022-08-24T00:25:27;6.03;;;3.30;;
70153;SDS011;57519;51.494;-2.626;2022-08-24T00:27:58;7.68;;;3.40;;
70153;SDS011;57519;51.494;-2.626;2022-08-24T00:30:24;8.45;;;3.15;;
70153;SDS011;57519;51.494;-2.626;2022-08-24T00:32:50;6.35;;;3.33;;
70153;SDS011;57519;51.494;-2.626;2022-08-24T00:35:17;6.23;;;3.63;;
70153;SDS011;57519;51.494;-2.626;2022-08-24T00:37:44;6.55;;;3.50;;
70153;SDS011;57519;51.494;-2.626;2022-08-24T00:40:13;8.63;;;4.07;;
70153;SDS011;57519;51.494;-2.626;2022-08-24T00:42:45;5.40;;;3.00;;
70153;SDS011;57519;51.494;-2.626;2022-08-24T00:45:12;5.80;;;3.28;;
70153;SDS011;57519;51.494;-2.626;2022-08-24T00:47:51;5.27;;;3.00;;
70153;SDS011;57519;51.494;-2.626;2022-08-24T00:50:35;5.50;;;3.20;;
70153;SDS011;57519;51.494;-2.626;2022-08-24T00:53:46;5.32;;;3.05;;
70153;SDS011;57519;51.494;-2.626;2022-08-24T00:56:15;8.48;;;3.10;;
70153;SDS011;57519;51.494;-2.626;2022-08-24T00:58:45;5.78;;;3.28;;
70153;SDS011;57519;51.494;-2.626;2022-08-24T01:01:16;6.13;;;3.07;;
70153;SDS011;57519;51.494;-2.626;2022-08-24T01:03:42;6.18;;;3.33;;
70153;SDS011;57519;51.494;-2.626;2022-08-24T01:06:10;8.13;;;3.63;;
70153;SDS011;57519;51.494;-2.626;2022-08-24T01:08:37;8.93;;;3.70;;
70153;SDS011;57519;51.494;-2.626;2022-08-24T01:11:07;5.13;;;3.05;;
70153;SDS011;57519;51.494;-2.626;2022-08-24T01:13:39;4.82;;;2.90;;
70153;SDS011;57519;51.494;-2.626;2022-08-24T01:16:08;8.55;;;3.78;;
70153;SDS011;57519;51.494;-2.626;2022-08-24T01:18:35;7.97;;;3.50;;
70153;SDS011;57519;51.494;-2.626;2022-08-24T01:23:52;5.80;;;3.17;;
70153;SDS011;57519;51.494;-2.626;2022-08-24T01:26:30;4.68;;;2.45;;
70153;SDS011;57519;51.494;-2.626;2022-08-24T01:29:01;5.45;;;3.45;;
70153;SDS011;57519;51.494;-2.626;2022-08-24T01:31:30;6.95;;;3.22;;
70153;SDS011;57519;51.494;-2.626;2022-08-24T01:33:57;7.27;;;3.73;;
70153;SDS011;57519;51.494;-2.626;2022-08-24T01:42:16;6.00;;;3.60;;
70153;SDS011;57519;51.494;-2.626;2022-08-24T01:44:42;8.77;;;3.47;;
70153;SDS011;57519;51.494;-2.626;2022-08-24T01:47:10;6.35;;;3.58;;
70153;SDS011;57519;51.494;-2.626;2022-08-24T01:49:38;6.13;;;2.77;;
70153;SDS011;57519;51.494;-2.626;2022-08-24T01:52:06;10.40;;;3.53;;
70153;SDS011;57519;51.494;-2.626;2022-08-24T01:54:33;9.23;;;4.00;;
70153;SDS011;57519;51.494;-2.626;2022-08-24T01:56:59;7.25;;;2.88;;
70153;SDS011;57519;51.494;-2.626;2022-08-24T01:59:25;11.80;;;4.38;;
70153;SDS011;57519;51.494;-2.626;2022-08-24T02:01:55;8.87;;;3.57;;
70153;SDS011;57519;51.494;-2.626;2022-08-24T02:04:25;6.78;;;3.22;;
70153;SDS011;57519;51.494;-2.626;2022-08-24T02:06:50;5.78;;;3.08;;
70153;SDS011;57519;51.494;-2.626;2022-08-24T02:09:17;6.63;;;3.23;;
70153;SDS011;57519;51.494;-2.626;2022-08-24T02:11:43;6.25;;;3.42;;
70153;SDS011;57519;51.494;-2.626;2022-08-24T02:14:08;8.80;;;3.77;;
70153;SDS011;57519;51.494;-2.626;2022-08-24T02:16:34;9.20;;;3.63;;
70153;SDS011;57519;51.494;-2.626;2022-08-24T02:19:00;7.70;;;3.58;;
70153;SDS011;57519;51.494;-2.626;2022-08-24T02:21:26;5.03;;;3.43;;
70153;SDS011;57519;51.494;-2.626;2022-08-24T02:23:51;7.43;;;3.77;;
70153;SDS011;57519;51.494;-2.626;2022-08-24T02:26:17;7.05;;;3.53;;
70153;SDS011;57519;51.494;-2.626;2022-08-24T02:28:42;8.57;;;4.00;;
70153;SDS011;57519;51.494;-2.626;2022-08-24T02:31:09;7.97;;;3.63;;
70153;SDS011;57519;51.494;-2.626;2022-08-24T02:33:36;6.03;;;3.60;;
70153;SDS011;57519;51.494;-2.626;2022-08-24T02:36:03;10.63;;;4.63;;
70153;SDS011;57519;51.494;-2.626;2022-08-24T02:38:30;8.52;;;3.83;;
70153;SDS011;57519;51.494;-2.626;2022-08-24T02:40:55;8.23;;;3.47;;
70153;SDS011;57519;51.494;-2.626;2022-08-24T02:43:22;8.98;;;4.00;;
70153;SDS011;57519;51.494;-2.626;2022-08-24T02:45:49;7.45;;;3.95;;
70153;SDS011;57519;51.494;-2.626;2022-08-24T02:48:14;7.37;;;3.77;;
70153;SDS011;57519;51.494;-2.626;2022-08-24T02:50:41;10.18;;;4.60;;
70153;SDS011;57519;51.494;-2.626;2022-08-24T02:53:09;9.80;;;4.35;;
70153;SDS011;57519;51.494;-2.626;2022-08-24T02:55:38;5.70;;;3.60;;
70153;SDS011;57519;51.494;-2.626;2022-08-24T02:58:05;5.22;;;3.13;;
70153;SDS011;57519;51.494;-2.626;2022-08-24T03:00:31;9.82;;;3.83;;
70153;SDS011;57519;51.494;-2.626;2022-08-24T03:02:56;6.57;;;3.50;;
70153;SDS011;57519;51.494;-2.626;2022-08-24T03:05:22;8.67;;;4.13;;
70153;SDS011;57519;51.494;-2.626;2022-08-24T03:07:48;6.75;;;3.47;;
70153;SDS011;57519;51.494;-2.626;2022-08-24T03:10:14;8.00;;;3.60;;
70153;SDS011;57519;51.494;-2.626;2022-08-24T03:12:39;6.50;;;3.67;;
70153;SDS011;57519;51.494;-2.626;2022-08-24T03:15:08;7.65;;;3.70;;
70153;SDS011;57519;51.494;-2.626;2022-08-24T03:17:35;9.40;;;4.25;;
70153;SDS011;57519;51.494;-2.626;2022-08-24T03:20:02;7.22;;;4.00;;
70153;SDS011;57519;51.494;-2.626;2022-08-24T03:22:30;5.13;;;3.53;;
70153;SDS011;57519;51.494;-2.626;2022-08-24T03:24:56;5.87;;;3.63;;
70153;SDS011;57519;51.494;-2.626;2022-08-24T03:27:21;7.80;;;3.60;;
70153;SDS011;57519;51.494;-2.626;2022-08-24T03:29:47;5.90;;;3.10;;
70153;SDS011;57519;51.494;-2.626;2022-08-24T03:32:12;6.03;;;3.63;;
70153;SDS011;57519;51.494;-2.626;2022-08-24T03:34:38;6.03;;;3.10;;
70153;SDS011;57519;51.494;-2.626;2022-08-24T03:37:04;6.93;;;3.53;;
70153;SDS011;57519;51.494;-2.626;2022-08-24T03:39:33;5.60;;;3.00;;
70153;SDS011;57519;51.494;-2.626;2022-08-24T03:41:58;5.70;;;3.15;;
70153;SDS011;57519;51.494;-2.626;2022-08-24T03:44:24;6.23;;;3.70;;
70153;SDS011;57519;51.494;-2.626;2022-08-24T03:46:50;6.13;;;3.57;;
70153;SDS011;57519;51.494;-2.626;2022-08-24T03:49:17;9.40;;;4.15;;
70153;SDS011;57519;51.494;-2.626;2022-08-24T03:51:43;6.90;;;3.67;;
70153;SDS011;57519;51.494;-2.626;2022-08-24T03:54:09;7.60;;;3.43;;
70153;SDS011;57519;51.494;-2.626;2022-08-24T03:56:37;6.70;;;3.70;;
70153;SDS011;57519;51.494;-2.626;2022-08-24T03:59:03;6.68;;;3.38;;
70153;SDS011;57519;51.494;-2.626;2022-08-24T04:01:29;7.03;;;3.25;;
70153;SDS011;57519;51.494;-2.626;2022-08-24T04:03:55;8.03;;;3.63;;
70153;SDS011;57519;51.494;-2.626;2022-08-24T04:06:21;7.00;;;3.67;;
70153;SDS011;57519;51.494;-2.626;2022-08-24T04:08:47;6.77;;;4.10;;
70153;SDS011;57519;51.494;-2.626;2022-08-24T04:11:13;8.52;;;4.07;;
70153;SDS011;57519;51.494;-2.626;2022-08-24T04:13:43;7.93;;;3.33;;
70153;SDS011;57519;51.494;-2.626;2022-08-24T04:16:10;8.20;;;3.53;;
70153;SDS011;57519;51.494;-2.626;2022-08-24T04:18:37;5.72;;;3.08;;
70153;SDS011;57519;51.494;-2.626;2022-08-24T04:21:04;7.43;;;2.97;;
70153;SDS011;57519;51.494;-2.626;2022-08-24T04:23:30;9.43;;;4.03;;
70153;SDS011;57519;51.494;-2.626;2022-08-24T04:26:00;5.93;;;3.33;;
70153;SDS011;57519;51.494;-2.626;2022-08-24T04:28:28;7.00;;;3.67;;
70153;SDS011;57519;51.494;-2.626;2022-08-24T04:30:54;6.45;;;3.33;;
70153;SDS011;57519;51.494;-2.626;2022-08-24T04:33:21;7.82;;;3.28;;
70153;SDS011;57519;51.494;-2.626;2022-08-24T04:35:46;6.43;;;3.57;;
70153;SDS011;57519;51.494;-2.626;2022-08-24T04:38:14;6.10;;;3.40;;
70153;SDS011;57519;51.494;-2.626;2022-08-24T04:40:41;5.30;;;3.10;;
70153;SDS011;57519;51.494;-2.626;2022-08-24T04:43:08;7.07;;;3.13;;
70153;SDS011;57519;51.494;-2.626;2022-08-24T04:45:40;6.87;;;3.50;;
70153;SDS011;57519;51.494;-2.626;2022-08-24T04:48:07;9.88;;;3.08;;
70153;SDS011;57519;51.494;-2.626;2022-08-24T04:50:34;5.13;;;3.10;;
70153;SDS011;57519;51.494;-2.626;2022-08-24T04:53:05;5.55;;;3.40;;
70153;SDS011;57519;51.494;-2.626;2022-08-24T04:55:32;8.98;;;3.67;;
70153;SDS011;57519;51.494;-2.626;2022-08-24T04:58:16;5.37;;;3.00;;
70153;SDS011;57519;51.494;-2.626;2022-08-24T05:00:43;6.22;;;3.28;;
70153;SDS011;57519;51.494;-2.626;2022-08-24T05:03:10;6.78;;;3.20;;
70153;SDS011;57519;51.494;-2.626;2022-08-24T05:05:54;5.85;;;3.33;;
70153;SDS011;57519;51.494;-2.626;2022-08-24T05:08:20;6.70;;;3.58;;
70153;SDS011;57519;51.494;-2.626;2022-08-24T05:10:46;7.57;;;3.67;;
70153;SDS011;57519;51.494;-2.626;2022-08-24T05:13:14;7.72;;;3.40;;
70153;SDS011;57519;51.494;-2.626;2022-08-24T05:15:41;6.35;;;3.55;;
70153;SDS011;57519;51.494;-2.626;2022-08-24T05:18:08;7.23;;;4.00;;
70153;SDS011;57519;51.494;-2.626;2022-08-24T05:20:33;5.88;;;3.15;;
70153;SDS011;57519;51.494;-2.626;2022-08-24T05:23:01;6.80;;;3.13;;
70153;SDS011;57519;51.494;-2.626;2022-08-24T05:25:27;6.85;;;3.30;;
70153;SDS011;57519;51.494;-2.626;2022-08-24T05:27:53;7.53;;;3.20;;
70153;SDS011;57519;51.494;-2.626;2022-08-24T05:30:19;6.40;;;3.05;;
70153;SDS011;57519;51.494;-2.626;2022-08-24T05:32:44;7.63;;;3.17;;
70153;SDS011;57519;51.494;-2.626;2022-08-24T05:35:10;6.22;;;3.00;;
70153;SDS011;57519;51.494;-2.626;2022-08-24T05:37:37;6.65;;;2.75;;
70153;SDS011;57519;51.494;-2.626;2022-08-24T05:40:04;7.47;;;3.58;;
70153;SDS011;57519;51.494;-2.626;2022-08-24T05:42:32;6.50;;;2.97;;
70153;SDS011;57519;51.494;-2.626;2022-08-24T05:44:57;5.70;;;3.33;;
70153;SDS011;57519;51.494;-2.626;2022-08-24T05:47:23;10.13;;;3.10;;
70153;SDS011;57519;51.494;-2.626;2022-08-24T05:49:49;6.03;;;3.60;;
70153;SDS011;57519;51.494;-2.626;2022-08-24T05:52:18;5.50;;;3.03;;
70153;SDS011;57519;51.494;-2.626;2022-08-24T05:54:45;7.93;;;3.33;;
70153;SDS011;57519;51.494;-2.626;2022-08-24T05:57:14;8.80;;;3.65;;
70153;SDS011;57519;51.494;-2.626;2022-08-24T05:59:40;5.80;;;2.70;;
70153;SDS011;57519;51.494;-2.626;2022-08-24T06:02:05;7.50;;;3.57;;
70153;SDS011;57519;51.494;-2.626;2022-08-24T06:04:33;5.90;;;3.20;;
70153;SDS011;57519;51.494;-2.626;2022-08-24T06:07:02;6.33;;;3.47;;
70153;SDS011;57519;51.494;-2.626;2022-08-24T06:09:28;6.70;;;3.42;;
70153;SDS011;57519;51.494;-2.626;2022-08-24T06:11:54;8.00;;;3.40;;
70153;SDS011;57519;51.494;-2.626;2022-08-24T06:14:19;7.97;;;3.25;;
70153;SDS011;57519;51.494;-2.626;2022-08-24T06:16:45;7.33;;;3.40;;
70153;SDS011;57519;51.494;-2.626;2022-08-24T06:19:12;6.68;;;3.40;;
70153;SDS011;57519;51.494;-2.626;2022-08-24T06:21:41;9.13;;;3.87;;
70153;SDS011;57519;51.494;-2.626;2022-08-24T06:24:06;5.72;;;3.20;;
70153;SDS011;57519;51.494;-2.626;2022-08-24T06:26:32;5.73;;;3.07;;
70153;SDS011;57519;51.494;-2.626;2022-08-24T06:29:17;8.13;;;3.10;;
70153;SDS011;57519;51.494;-2.626;2022-08-24T06:31:44;5.20;;;2.90;;
70153;SDS011;57519;51.494;-2.626;2022-08-24T06:34:12;6.72;;;3.17;;
70153;SDS011;57519;51.494;-2.626;2022-08-24T06:36:39;6.40;;;2.95;;
70153;SDS011;57519;51.494;-2.626;2022-08-24T06:39:05;7.57;;;3.37;;
70153;SDS011;57519;51.494;-2.626;2022-08-24T06:41:33;5.63;;;3.10;;
70153;SDS011;57519;51.494;-2.626;2022-08-24T06:43:58;7.00;;;3.08;;
70153;SDS011;57519;51.494;-2.626;2022-08-24T06:46:24;6.53;;;3.03;;
70153;SDS011;57519;51.494;-2.626;2022-08-24T06:48:49;5.83;;;3.00;;
70153;SDS011;57519;51.494;-2.626;2022-08-24T06:51:16;8.18;;;3.17;;
70153;SDS011;57519;51.494;-2.626;2022-08-24T06:53:44;5.70;;;2.85;;
70153;SDS011;57519;51.494;-2.626;2022-08-24T06:56:10;7.97;;;2.90;;
70153;SDS011;57519;51.494;-2.626;2022-08-24T06:58:36;5.00;;;2.70;;
70153;SDS011;57519;51.494;-2.626;2022-08-24T07:01:09;5.43;;;3.17;;
70153;SDS011;57519;51.494;-2.626;2022-08-24T07:03:39;10.33;;;3.50;;
70153;SDS011;57519;51.494;-2.626;2022-08-24T07:06:05;7.68;;;3.10;;
70153;SDS011;57519;51.494;-2.626;2022-08-24T07:08:31;7.95;;;3.28;;
70153;SDS011;57519;51.494;-2.626;2022-08-24T07:10:57;6.67;;;3.10;;
70153;SDS011;57519;51.494;-2.626;2022-08-24T07:13:22;8.00;;;3.25;;
70153;SDS011;57519;51.494;-2.626;2022-08-24T07:15:49;5.27;;;3.13;;
70153;SDS011;57519;51.494;-2.626;2022-08-24T07:18:16;5.82;;;3.03;;
70153;SDS011;57519;51.494;-2.626;2022-08-24T07:20:43;6.63;;;3.10;;
70153;SDS011;57519;51.494;-2.626;2022-08-24T07:23:10;6.65;;;3.25;;
70153;SDS011;57519;51.494;-2.626;2022-08-24T07:25:39;6.18;;;2.97;;
70153;SDS011;57519;51.494;-2.626;2022-08-24T07:28:05;9.80;;;3.60;;
70153;SDS011;57519;51.494;-2.626;2022-08-24T07:30:31;6.60;;;3.22;;
70153;SDS011;57519;51.494;-2.626;2022-08-24T07:32:57;6.83;;;3.13;;
70153;SDS011;57519;51.494;-2.626;2022-08-24T07:35:23;8.77;;;3.30;;
70153;SDS011;57519;51.494;-2.626;2022-08-24T07:37:52;5.60;;;2.88;;
70153;SDS011;57519;51.494;-2.626;2022-08-24T07:40:19;6.75;;;2.92;;
70153;SDS011;57519;51.494;-2.626;2022-08-24T07:42:49;5.00;;;2.90;;
70153;SDS011;57519;51.494;-2.626;2022-08-24T07:45:15;5.77;;;2.80;;
70153;SDS011;57519;51.494;-2.626;2022-08-24T07:47:41;7.22;;;3.13;;
70153;SDS011;57519;51.494;-2.626;2022-08-24T07:50:07;7.00;;;3.00;;
70153;SDS011;57519;51.494;-2.626;2022-08-24T07:52:33;5.43;;;3.17;;
70153;SDS011;57519;51.494;-2.626;2022-08-24T07:55:00;6.30;;;2.80;;
70153;SDS011;57519;51.494;-2.626;2022-08-24T07:57:26;10.00;;;3.63;;
70153;SDS011;57519;51.494;-2.626;2022-08-24T07:59:51;4.90;;;3.27;;
70153;SDS011;57519;51.494;-2.626;2022-08-24T08:02:17;5.43;;;3.03;;
70153;SDS011;57519;51.494;-2.626;2022-08-24T08:04:42;6.17;;;2.97;;
70153;SDS011;57519;51.494;-2.626;2022-08-24T08:07:08;7.60;;;3.00;;
70153;SDS011;57519;51.494;-2.626;2022-08-24T08:09:37;4.50;;;2.83;;
70153;SDS011;57519;51.494;-2.626;2022-08-24T08:12:03;5.50;;;2.95;;
70153;SDS011;57519;51.494;-2.626;2022-08-24T08:14:29;6.03;;;3.03;;
70153;SDS011;57519;51.494;-2.626;2022-08-24T08:16:55;6.20;;;3.00;;
70153;SDS011;57519;51.494;-2.626;2022-08-24T08:19:20;7.87;;;3.40;;
70153;SDS011;57519;51.494;-2.626;2022-08-24T08:21:47;7.03;;;3.17;;
70153;SDS011;57519;51.494;-2.626;2022-08-24T08:24:33;7.77;;;2.93;;
70153;SDS011;57519;51.494;-2.626;2022-08-24T08:27:00;7.95;;;3.47;;
70153;SDS011;57519;51.494;-2.626;2022-08-24T08:29:26;8.48;;;4.32;;
70153;SDS011;57519;51.494;-2.626;2022-08-24T08:31:55;10.37;;;4.47;;
70153;SDS011;57519;51.494;-2.626;2022-08-24T08:34:20;9.70;;;4.85;;
70153;SDS011;57519;51.494;-2.626;2022-08-24T08:36:46;11.50;;;4.53;;
70153;SDS011;57519;51.494;-2.626;2022-08-24T08:39:12;10.97;;;5.03;;
70153;SDS011;57519;51.494;-2.626;2022-08-24T08:50:32;9.40;;;5.13;;
70153;SDS011;57519;51.494;-2.626;2022-08-24T08:56:00;8.32;;;4.57;;
70153;SDS011;57519;51.494;-2.626;2022-08-24T09:29:02;10.30;;;3.67;;
70153;SDS011;57519;51.494;-2.626;2022-08-24T09:53:38;9.13;;;3.57;;
70153;SDS011;57519;51.494;-2.626;2022-08-24T09:59:28;9.18;;;3.83;;
70153;SDS011;57519;51.494;-2.626;2022-08-24T10:02:32;6.82;;;2.88;;
70153;SDS011;57519;51.494;-2.626;2022-08-24T10:05:27;6.95;;;3.40;;
70153;SDS011;57519;51.494;-2.626;2022-08-24T10:08:03;6.40;;;3.10;;
70153;SDS011;57519;51.494;-2.626;2022-08-24T10:10:44;4.93;;;2.70;;
70153;SDS011;57519;51.494;-2.626;2022-08-24T10:24:16;5.05;;;3.03;;
70153;SDS011;57519;51.494;-2.626;2022-08-24T10:32:10;5.15;;;3.10;;
70153;SDS011;57519;51.494;-2.626;2022-08-24T10:35:04;5.43;;;3.00;;
70153;SDS011;57519;51.494;-2.626;2022-08-24T10:38:10;6.53;;;3.30;;
70153;SDS011;57519;51.494;-2.626;2022-08-24T10:41:11;6.20;;;3.25;;
70153;SDS011;57519;51.494;-2.626;2022-08-24T10:54:14;4.88;;;2.75;;
70153;SDS011;57519;51.494;-2.626;2022-08-24T11:02:30;4.47;;;2.67;;
70153;SDS011;57519;51.494;-2.626;2022-08-24T11:05:05;4.88;;;2.42;;
70153;SDS011;57519;51.494;-2.626;2022-08-24T11:07:33;7.43;;;2.92;;
70153;SDS011;57519;51.494;-2.626;2022-08-24T11:10:02;5.10;;;2.67;;
70153;SDS011;57519;51.494;-2.626;2022-08-24T11:12:40;5.10;;;2.75;;
70153;SDS011;57519;51.494;-2.626;2022-08-24T11:17:52;5.90;;;2.42;;
70153;SDS011;57519;51.494;-2.626;2022-08-24T11:23:01;4.70;;;2.67;;
70153;SDS011;57519;51.494;-2.626;2022-08-24T11:25:30;7.55;;;3.40;;
70153;SDS011;57519;51.494;-2.626;2022-08-24T11:28:03;4.73;;;2.40;;
70153;SDS011;57519;51.494;-2.626;2022-08-24T11:30:33;4.60;;;2.60;;
70153;SDS011;57519;51.494;-2.626;2022-08-24T11:33:04;5.10;;;2.60;;
70153;SDS011;57519;51.494;-2.626;2022-08-24T11:35:48;4.72;;;2.35;;
70153;SDS011;57519;51.494;-2.626;2022-08-24T11:38:20;6.03;;;3.05;;
70153;SDS011;57519;51.494;-2.626;2022-08-24T11:40:56;5.30;;;2.67;;
70153;SDS011;57519;51.494;-2.626;2022-08-24T11:43:30;7.13;;;2.65;;
70153;SDS011;57519;51.494;-2.626;2022-08-24T12:10:31;5.65;;;3.05;;
70153;SDS011;57519;51.494;-2.626;2022-08-24T12:15:47;6.32;;;3.53;;
70153;SDS011;57519;51.494;-2.626;2022-08-24T12:18:54;6.25;;;3.20;;
70153;SDS011;57519;51.494;-2.626;2022-08-24T12:21:27;10.60;;;4.15;;
70153;SDS011;57519;51.494;-2.626;2022-08-24T12:24:06;6.63;;;3.67;;
70153;SDS011;57519;51.494;-2.626;2022-08-24T12:27:02;7.17;;;4.00;;
70153;SDS011;57519;51.494;-2.626;2022-08-24T12:32:03;7.68;;;4.05;;
70153;SDS011;57519;51.494;-2.626;2022-08-24T12:34:34;6.53;;;3.70;;
70153;SDS011;57519;51.494;-2.626;2022-08-24T12:37:24;6.40;;;3.78;;
70153;SDS011;57519;51.494;-2.626;2022-08-24T12:42:55;8.48;;;4.68;;
70153;SDS011;57519;51.494;-2.626;2022-08-24T12:45:28;8.82;;;4.93;;
70153;SDS011;57519;51.494;-2.626;2022-08-24T13:01:25;11.15;;;5.93;;
70153;SDS011;57519;51.494;-2.626;2022-08-24T13:04:10;9.05;;;5.45;;
70153;SDS011;57519;51.494;-2.626;2022-08-24T13:06:50;9.17;;;5.77;;
70153;SDS011;57519;51.494;-2.626;2022-08-24T13:09:28;10.95;;;6.22;;
70153;SDS011;57519;51.494;-2.626;2022-08-24T13:11:57;7.80;;;4.80;;
70153;SDS011;57519;51.494;-2.626;2022-08-24T13:14:44;8.23;;;5.05;;
70153;SDS011;57519;51.494;-2.626;2022-08-24T13:17:14;10.90;;;4.97;;
70153;SDS011;57519;51.494;-2.626;2022-08-24T13:19:44;8.17;;;5.00;;
70153;SDS011;57519;51.494;-2.626;2022-08-24T13:24:43;8.32;;;5.18;;
70153;SDS011;57519;51.494;-2.626;2022-08-24T13:29:35;8.77;;;4.83;;
70153;SDS011;57519;51.494;-2.626;2022-08-24T13:32:03;9.80;;;5.70;;
70153;SDS011;57519;51.494;-2.626;2022-08-24T13:34:44;8.48;;;5.35;;
70153;SDS011;57519;51.494;-2.626;2022-08-24T13:42:40;7.63;;;5.07;;
70153;SDS011;57519;51.494;-2.626;2022-08-24T14:11:05;6.15;;;3.65;;
70153;SDS011;57519;51.494;-2.626;2022-08-24T14:13:54;9.68;;;4.35;;
70153;SDS011;57519;51.494;-2.626;2022-08-24T14:19:13;8.87;;;4.60;;
70153;SDS011;57519;51.494;-2.626;2022-08-24T14:21:52;8.98;;;5.07;;
70153;SDS011;57519;51.494;-2.626;2022-08-24T14:24:29;7.25;;;4.57;;
70153;SDS011;57519;51.494;-2.626;2022-08-24T14:26:59;7.63;;;4.88;;
70153;SDS011;57519;51.494;-2.626;2022-08-24T14:29:29;8.82;;;4.78;;
70153;SDS011;57519;51.494;-2.626;2022-08-24T14:34:23;6.57;;;5.10;;
70153;SDS011;57519;51.494;-2.626;2022-08-24T14:39:42;8.60;;;4.38;;
70153;SDS011;57519;51.494;-2.626;2022-08-24T14:42:22;8.73;;;4.40;;
70153;SDS011;57519;51.494;-2.626;2022-08-24T14:47:57;6.77;;;3.90;;
70153;SDS011;57519;51.494;-2.626;2022-08-24T14:50:48;7.00;;;4.38;;
70153;SDS011;57519;51.494;-2.626;2022-08-24T14:56:16;8.98;;;4.05;;
70153;SDS011;57519;51.494;-2.626;2022-08-24T15:01:41;9.33;;;4.40;;
70153;SDS011;57519;51.494;-2.626;2022-08-24T15:04:23;6.80;;;4.15;;
70153;SDS011;57519;51.494;-2.626;2022-08-24T15:09:45;6.32;;;3.55;;
70153;SDS011;57519;51.494;-2.626;2022-08-24T15:12:13;6.03;;;3.40;;
70153;SDS011;57519;51.494;-2.626;2022-08-24T15:14:52;6.93;;;3.83;;
70153;SDS011;57519;51.494;-2.626;2022-08-24T15:17:24;9.00;;;4.05;;
70153;SDS011;57519;51.494;-2.626;2022-08-24T15:20:07;6.47;;;3.67;;
70153;SDS011;57519;51.494;-2.626;2022-08-24T15:22:53;5.20;;;3.10;;
70153;SDS011;57519;51.494;-2.626;2022-08-24T15:25:31;6.93;;;3.45;;
70153;SDS011;57519;51.494;-2.626;2022-08-24T15:28:09;8.50;;;3.93;;
70153;SDS011;57519;51.494;-2.626;2022-08-24T15:30:52;7.13;;;3.83;;
70153;SDS011;57519;51.494;-2.626;2022-08-24T15:33:31;6.63;;;3.55;;
70153;SDS011;57519;51.494;-2.626;2022-08-24T15:36:11;6.03;;;3.42;;
70153;SDS011;57519;51.494;-2.626;2022-08-24T15:38:39;5.93;;;3.50;;
70153;SDS011;57519;51.494;-2.626;2022-08-24T15:44:03;7.00;;;3.50;;
70153;SDS011;57519;51.494;-2.626;2022-08-24T15:49:04;6.90;;;3.67;;
70153;SDS011;57519;51.494;-2.626;2022-08-24T15:57:22;5.13;;;2.92;;
70153;SDS011;57519;51.494;-2.626;2022-08-24T15:59:52;7.03;;;3.33;;
70153;SDS011;57519;51.494;-2.626;2022-08-24T16:02:23;5.45;;;3.10;;
70153;SDS011;57519;51.494;-2.626;2022-08-24T16:04:58;5.93;;;3.20;;
70153;SDS011;57519;51.494;-2.626;2022-08-24T16:07:31;8.43;;;3.87;;
70153;SDS011;57519;51.494;-2.626;2022-08-24T16:10:04;5.38;;;2.95;;
70153;SDS011;57519;51.494;-2.626;2022-08-24T16:12:36;5.03;;;2.97;;
70153;SDS011;57519;51.494;-2.626;2022-08-24T16:15:11;7.15;;;3.55;;
70153;SDS011;57519;51.494;-2.626;2022-08-24T16:17:48;4.55;;;2.33;;
70153;SDS011;57519;51.494;-2.626;2022-08-24T16:22:48;4.90;;;3.13;;
70153;SDS011;57519;51.494;-2.626;2022-08-24T16:30:36;4.85;;;2.97;;
70153;SDS011;57519;51.494;-2.626;2022-08-24T16:33:04;11.20;;;4.03;;
70153;SDS011;57519;51.494;-2.626;2022-08-24T16:35:30;6.75;;;2.95;;
70153;SDS011;57519;51.494;-2.626;2022-08-24T16:37:57;5.40;;;3.08;;
70153;SDS011;57519;51.494;-2.626;2022-08-24T16:40:23;5.47;;;3.08;;
70153;SDS011;57519;51.494;-2.626;2022-08-24T16:42:49;4.93;;;2.83;;
70153;SDS011;57519;51.494;-2.626;2022-08-24T16:45:16;5.50;;;3.10;;
70153;SDS011;57519;51.494;-2.626;2022-08-24T16:47:45;5.37;;;3.13;;
70153;SDS011;57519;51.494;-2.626;2022-08-24T16:50:11;6.22;;;3.13;;
70153;SDS011;57519;51.494;-2.626;2022-08-24T16:52:38;4.93;;;3.13;;
70153;SDS011;57519;51.494;-2.626;2022-08-24T16:55:03;5.80;;;3.10;;
70153;SDS011;57519;51.494;-2.626;2022-08-24T16:57:32;9.00;;;4.00;;
70153;SDS011;57519;51.494;-2.626;2022-08-24T17:00:00;6.55;;;3.20;;
70153;SDS011;57519;51.494;-2.626;2022-08-24T17:02:27;5.60;;;3.55;;
70153;SDS011;57519;51.494;-2.626;2022-08-24T17:04:53;7.50;;;3.53;;
70153;SDS011;57519;51.494;-2.626;2022-08-24T17:07:21;9.80;;;4.00;;
70153;SDS011;57519;51.494;-2.626;2022-08-24T17:09:48;5.63;;;3.13;;
70153;SDS011;57519;51.494;-2.626;2022-08-24T17:12:14;4.75;;;2.90;;
70153;SDS011;57519;51.494;-2.626;2022-08-24T17:14:39;6.22;;;3.42;;
70153;SDS011;57519;51.494;-2.626;2022-08-24T17:17:05;7.10;;;3.53;;
70153;SDS011;57519;51.494;-2.626;2022-08-24T17:19:33;6.07;;;3.28;;
70153;SDS011;57519;51.494;-2.626;2022-08-24T17:22:00;5.40;;;3.38;;
70153;SDS011;57519;51.494;-2.626;2022-08-24T17:24:25;6.23;;;3.37;;
70153;SDS011;57519;51.494;-2.626;2022-08-24T17:26:51;6.20;;;3.10;;
70153;SDS011;57519;51.494;-2.626;2022-08-24T17:29:17;5.53;;;3.10;;
70153;SDS011;57519;51.494;-2.626;2022-08-24T17:31:45;5.65;;;2.80;;
70153;SDS011;57519;51.494;-2.626;2022-08-24T17:34:16;6.45;;;3.45;;
70153;SDS011;57519;51.494;-2.626;2022-08-24T17:36:44;5.45;;;3.22;;
70153;SDS011;57519;51.494;-2.626;2022-08-24T17:39:10;6.60;;;3.30;;
70153;SDS011;57519;51.494;-2.626;2022-08-24T17:41:38;8.63;;;3.47;;
70153;SDS011;57519;51.494;-2.626;2022-08-24T17:44:07;6.72;;;3.42;;
70153;SDS011;57519;51.494;-2.626;2022-08-24T17:46:35;5.13;;;3.10;;
70153;SDS011;57519;51.494;-2.626;2022-08-24T17:49:01;5.68;;;3.33;;
70153;SDS011;57519;51.494;-2.626;2022-08-24T17:51:27;9.07;;;4.15;;
70153;SDS011;57519;51.494;-2.626;2022-08-24T17:53:53;5.10;;;3.17;;
70153;SDS011;57519;51.494;-2.626;2022-08-24T17:56:18;5.90;;;3.50;;
70153;SDS011;57519;51.494;-2.626;2022-08-24T17:58:44;5.03;;;3.70;;
70153;SDS011;57519;51.494;-2.626;2022-08-24T18:01:28;6.13;;;3.47;;
70153;SDS011;57519;51.494;-2.626;2022-08-24T18:03:54;8.35;;;3.90;;
70153;SDS011;57519;51.494;-2.626;2022-08-24T18:06:20;5.67;;;3.30;;
70153;SDS011;57519;51.494;-2.626;2022-08-24T18:08:48;6.00;;;3.75;;
70153;SDS011;57519;51.494;-2.626;2022-08-24T18:11:14;5.63;;;3.72;;
70153;SDS011;57519;51.494;-2.626;2022-08-24T18:13:39;6.40;;;3.90;;
70153;SDS011;57519;51.494;-2.626;2022-08-24T18:16:08;6.40;;;4.25;;
70153;SDS011;57519;51.494;-2.626;2022-08-24T18:18:37;7.72;;;4.07;;
70153;SDS011;57519;51.494;-2.626;2022-08-24T18:21:02;5.73;;;3.43;;
70153;SDS011;57519;51.494;-2.626;2022-08-24T18:23:29;9.40;;;4.40;;
70153;SDS011;57519;51.494;-2.626;2022-08-24T18:25:54;5.77;;;3.17;;
70153;SDS011;57519;51.494;-2.626;2022-08-24T18:28:21;8.52;;;5.07;;
70153;SDS011;57519;51.494;-2.626;2022-08-24T18:30:46;6.70;;;4.90;;
70153;SDS011;57519;51.494;-2.626;2022-08-24T18:33:12;6.80;;;4.20;;
70153;SDS011;57519;51.494;-2.626;2022-08-24T18:35:38;9.47;;;4.83;;
70153;SDS011;57519;51.494;-2.626;2022-08-24T18:38:03;7.97;;;3.73;;
70153;SDS011;57519;51.494;-2.626;2022-08-24T18:40:29;8.45;;;4.00;;
70153;SDS011;57519;51.494;-2.626;2022-08-24T18:42:55;6.03;;;3.40;;